sensor_id;sensor_type;location;lat;lon;timestamp;P1;durP1;ratioP1;P2;durP2;ratioP2
6947;SDS011;3513;47.664;9.162;2023-04-24T00:00:00;3.90;;;1.30;;
6947;SDS011;3513;47.664;9.162;2023-04-24T00:02:30;3.80;;;1.30;;
6947;SDS011;3513;47.664;9.162;2023-04-24T00:04:56;2.00;;;1.20;;
6947;SDS011;3513;47.664;9.162;2023-04-24T00:07:22;3.03;;;2.00;;
6947;SDS011;3513;47.664;9.162;2023-04-24T00:09:47;2.80;;;1.27;;
6947;SDS011;3513;47.664;9.162;2023-04-24T00:12:13;3.27;;;1.60;;
6947;SDS011;3513;47.664;9.162;2023-04-24T00:14:39;1.77;;;1.30;;
6947;SDS011;3513;47.664;9.162;2023-04-24T00:17:04;1.30;;;1.20;;
6947;SDS011;3513;47.664;9.162;2023-04-24T00:19:30;2.03;;;1.70;;
6947;SDS011;3513;47.664;9.162;2023-04-24T00:21:55;1.63;;;1.20;;
6947;SDS011;3513;47.664;9.162;2023-04-24T00:24:21;3.20;;;1.60;;
6947;SDS011;3513;47.664;9.162;2023-04-24T00:26:46;1.97;;;1.00;;
6947;SDS011;3513;47.664;9.162;2023-04-24T00:29:12;3.60;;;1.77;;
6947;SDS011;3513;47.664;9.162;2023-04-24T00:31:38;1.50;;;1.33;;
6947;SDS011;3513;47.664;9.162;2023-04-24T00:34:03;2.57;;;1.30;;
6947;SDS011;3513;47.664;9.162;2023-04-24T00:36:29;9.90;;;1.40;;
6947;SDS011;3513;47.664;9.162;2023-04-24T00:38:56;1.73;;;1.53;;
6947;SDS011;3513;47.664;9.162;2023-04-24T00:41:22;3.53;;;1.60;;
6947;SDS011;3513;47.664;9.162;2023-04-24T00:43:49;3.50;;;1.60;;
6947;SDS011;3513;47.664;9.162;2023-04-24T00:46:15;1.20;;;1.03;;
6947;SDS011;3513;47.664;9.162;2023-04-24T00:48:41;1.77;;;1.27;;
6947;SDS011;3513;47.664;9.162;2023-04-24T00:51:08;1.17;;;1.07;;
6947;SDS011;3513;47.664;9.162;2023-04-24T00:53:33;1.40;;;1.30;;
6947;SDS011;3513;47.664;9.162;2023-04-24T00:55:59;2.83;;;1.80;;
6947;SDS011;3513;47.664;9.162;2023-04-24T00:58:25;1.23;;;1.13;;
6947;SDS011;3513;47.664;9.162;2023-04-24T01:00:51;1.10;;;1.00;;
6947;SDS011;3513;47.664;9.162;2023-04-24T01:03:18;1.50;;;1.17;;
6947;SDS011;3513;47.664;9.162;2023-04-24T01:05:49;1.33;;;1.23;;
6947;SDS011;3513;47.664;9.162;2023-04-24T01:08:15;2.10;;;1.40;;
6947;SDS011;3513;47.664;9.162;2023-04-24T01:10:41;1.27;;;1.17;;
6947;SDS011;3513;47.664;9.162;2023-04-24T01:13:09;1.07;;;0.97;;
6947;SDS011;3513;47.664;9.162;2023-04-24T01:15:35;1.50;;;1.10;;
6947;SDS011;3513;47.664;9.162;2023-04-24T01:18:00;1.00;;;0.80;;
6947;SDS011;3513;47.664;9.162;2023-04-24T01:20:26;2.23;;;0.87;;
6947;SDS011;3513;47.664;9.162;2023-04-24T01:22:54;1.50;;;0.87;;
6947;SDS011;3513;47.664;9.162;2023-04-24T01:25:21;4.10;;;1.60;;
6947;SDS011;3513;47.664;9.162;2023-04-24T01:27:47;0.90;;;0.70;;
6947;SDS011;3513;47.664;9.162;2023-04-24T01:30:13;0.90;;;0.80;;
6947;SDS011;3513;47.664;9.162;2023-04-24T01:32:39;1.87;;;0.60;;
6947;SDS011;3513;47.664;9.162;2023-04-24T01:35:06;0.80;;;0.60;;
6947;SDS011;3513;47.664;9.162;2023-04-24T01:37:32;4.47;;;0.63;;
6947;SDS011;3513;47.664;9.162;2023-04-24T01:39:58;5.00;;;1.10;;
6947;SDS011;3513;47.664;9.162;2023-04-24T01:42:24;2.50;;;0.80;;
6947;SDS011;3513;47.664;9.162;2023-04-24T01:44:50;5.23;;;1.03;;
6947;SDS011;3513;47.664;9.162;2023-04-24T01:47:16;1.57;;;0.60;;
6947;SDS011;3513;47.664;9.162;2023-04-24T01:49:42;3.30;;;0.80;;
6947;SDS011;3513;47.664;9.162;2023-04-24T01:52:07;2.60;;;0.83;;
6947;SDS011;3513;47.664;9.162;2023-04-24T01:54:33;1.63;;;0.90;;
6947;SDS011;3513;47.664;9.162;2023-04-24T01:56:59;0.60;;;0.60;;
6947;SDS011;3513;47.664;9.162;2023-04-24T01:59:26;2.90;;;1.00;;
6947;SDS011;3513;47.664;9.162;2023-04-24T02:01:53;8.73;;;1.00;;
6947;SDS011;3513;47.664;9.162;2023-04-24T02:04:19;2.20;;;0.60;;
6947;SDS011;3513;47.664;9.162;2023-04-24T02:06:45;0.70;;;0.50;;
6947;SDS011;3513;47.664;9.162;2023-04-24T02:09:10;0.80;;;0.80;;
6947;SDS011;3513;47.664;9.162;2023-04-24T02:11:36;0.80;;;0.60;;
6947;SDS011;3513;47.664;9.162;2023-04-24T02:14:01;2.50;;;0.90;;
6947;SDS011;3513;47.664;9.162;2023-04-24T02:16:28;1.17;;;0.73;;
6947;SDS011;3513;47.664;9.162;2023-04-24T02:18:57;2.93;;;1.10;;
6947;SDS011;3513;47.664;9.162;2023-04-24T02:21:23;0.63;;;0.50;;
6947;SDS011;3513;47.664;9.162;2023-04-24T02:23:49;0.70;;;0.70;;
6947;SDS011;3513;47.664;9.162;2023-04-24T02:26:14;0.63;;;0.53;;
6947;SDS011;3513;47.664;9.162;2023-04-24T02:28:41;0.80;;;0.70;;
6947;SDS011;3513;47.664;9.162;2023-04-24T02:31:06;0.90;;;0.70;;
6947;SDS011;3513;47.664;9.162;2023-04-24T02:33:32;6.53;;;0.70;;
6947;SDS011;3513;47.664;9.162;2023-04-24T02:35:57;1.07;;;0.70;;
6947;SDS011;3513;47.664;9.162;2023-04-24T02:38:23;0.97;;;0.70;;
6947;SDS011;3513;47.664;9.162;2023-04-24T02:40:49;1.90;;;0.80;;
6947;SDS011;3513;47.664;9.162;2023-04-24T02:43:14;1.70;;;0.73;;
6947;SDS011;3513;47.664;9.162;2023-04-24T02:45:40;3.70;;;0.90;;
6947;SDS011;3513;47.664;9.162;2023-04-24T02:48:05;1.13;;;0.63;;
6947;SDS011;3513;47.664;9.162;2023-04-24T02:50:31;0.90;;;0.50;;
6947;SDS011;3513;47.664;9.162;2023-04-24T02:52:58;0.80;;;0.70;;
6947;SDS011;3513;47.664;9.162;2023-04-24T02:55:24;1.57;;;0.70;;
6947;SDS011;3513;47.664;9.162;2023-04-24T02:57:50;1.07;;;0.60;;
6947;SDS011;3513;47.664;9.162;2023-04-24T03:00:15;1.53;;;0.60;;
6947;SDS011;3513;47.664;9.162;2023-04-24T03:02:41;0.70;;;0.60;;
6947;SDS011;3513;47.664;9.162;2023-04-24T03:05:07;0.80;;;0.80;;
6947;SDS011;3513;47.664;9.162;2023-04-24T03:07:33;0.87;;;0.67;;
6947;SDS011;3513;47.664;9.162;2023-04-24T03:09:59;0.80;;;0.60;;
6947;SDS011;3513;47.664;9.162;2023-04-24T03:12:25;1.13;;;0.70;;
6947;SDS011;3513;47.664;9.162;2023-04-24T03:14:50;0.63;;;0.57;;
6947;SDS011;3513;47.664;9.162;2023-04-24T03:17:16;0.70;;;0.63;;
6947;SDS011;3513;47.664;9.162;2023-04-24T03:19:42;1.57;;;0.60;;
6947;SDS011;3513;47.664;9.162;2023-04-24T03:22:07;2.13;;;0.50;;
6947;SDS011;3513;47.664;9.162;2023-04-24T03:24:34;1.50;;;0.70;;
6947;SDS011;3513;47.664;9.162;2023-04-24T03:26:59;0.90;;;0.60;;
6947;SDS011;3513;47.664;9.162;2023-04-24T03:29:25;3.33;;;0.60;;
6947;SDS011;3513;47.664;9.162;2023-04-24T03:31:51;0.70;;;0.60;;
6947;SDS011;3513;47.664;9.162;2023-04-24T03:34:16;0.83;;;0.60;;
6947;SDS011;3513;47.664;9.162;2023-04-24T03:36:42;1.80;;;0.60;;
6947;SDS011;3513;47.664;9.162;2023-04-24T03:39:07;1.67;;;0.60;;
6947;SDS011;3513;47.664;9.162;2023-04-24T03:41:33;1.70;;;1.13;;
6947;SDS011;3513;47.664;9.162;2023-04-24T03:43:58;0.60;;;0.50;;
6947;SDS011;3513;47.664;9.162;2023-04-24T03:46:24;0.90;;;0.60;;
6947;SDS011;3513;47.664;9.162;2023-04-24T03:48:50;0.70;;;0.67;;
6947;SDS011;3513;47.664;9.162;2023-04-24T03:51:16;0.60;;;0.53;;
6947;SDS011;3513;47.664;9.162;2023-04-24T03:53:41;1.63;;;0.80;;
6947;SDS011;3513;47.664;9.162;2023-04-24T03:56:07;1.27;;;0.97;;
6947;SDS011;3513;47.664;9.162;2023-04-24T03:58:32;3.03;;;0.60;;
6947;SDS011;3513;47.664;9.162;2023-04-24T04:00:58;2.03;;;0.80;;
6947;SDS011;3513;47.664;9.162;2023-04-24T04:03:23;0.80;;;0.60;;
6947;SDS011;3513;47.664;9.162;2023-04-24T04:05:50;0.60;;;0.60;;
6947;SDS011;3513;47.664;9.162;2023-04-24T04:08:15;0.90;;;0.70;;
6947;SDS011;3513;47.664;9.162;2023-04-24T04:10:41;0.60;;;0.50;;
6947;SDS011;3513;47.664;9.162;2023-04-24T04:13:06;0.60;;;0.50;;
6947;SDS011;3513;47.664;9.162;2023-04-24T04:15:32;0.60;;;0.50;;
6947;SDS011;3513;47.664;9.162;2023-04-24T04:17:58;4.00;;;1.07;;
6947;SDS011;3513;47.664;9.162;2023-04-24T04:20:23;0.80;;;0.60;;
6947;SDS011;3513;47.664;9.162;2023-04-24T04:22:49;0.60;;;0.50;;
6947;SDS011;3513;47.664;9.162;2023-04-24T04:25:15;0.80;;;0.60;;
6947;SDS011;3513;47.664;9.162;2023-04-24T04:27:40;3.33;;;0.50;;
6947;SDS011;3513;47.664;9.162;2023-04-24T04:30:07;1.03;;;0.60;;
6947;SDS011;3513;47.664;9.162;2023-04-24T04:32:36;1.00;;;0.67;;
6947;SDS011;3513;47.664;9.162;2023-04-24T04:35:02;8.63;;;0.70;;
6947;SDS011;3513;47.664;9.162;2023-04-24T04:37:32;0.87;;;0.60;;
6947;SDS011;3513;47.664;9.162;2023-04-24T04:39:58;5.80;;;0.60;;
6947;SDS011;3513;47.664;9.162;2023-04-24T04:42:24;0.80;;;0.80;;
6947;SDS011;3513;47.664;9.162;2023-04-24T04:44:51;0.70;;;0.70;;
6947;SDS011;3513;47.664;9.162;2023-04-24T04:47:17;0.80;;;0.73;;
6947;SDS011;3513;47.664;9.162;2023-04-24T04:49:46;1.43;;;0.60;;
6947;SDS011;3513;47.664;9.162;2023-04-24T04:52:13;7.83;;;0.70;;
6947;SDS011;3513;47.664;9.162;2023-04-24T04:54:38;2.10;;;0.50;;
6947;SDS011;3513;47.664;9.162;2023-04-24T04:57:04;0.90;;;0.50;;
6947;SDS011;3513;47.664;9.162;2023-04-24T04:59:30;1.00;;;0.63;;
6947;SDS011;3513;47.664;9.162;2023-04-24T05:01:56;2.70;;;0.70;;
6947;SDS011;3513;47.664;9.162;2023-04-24T05:04:21;11.13;;;0.80;;
6947;SDS011;3513;47.664;9.162;2023-04-24T05:06:47;1.90;;;0.60;;
6947;SDS011;3513;47.664;9.162;2023-04-24T05:09:13;0.93;;;0.83;;
6947;SDS011;3513;47.664;9.162;2023-04-24T05:11:38;1.57;;;0.60;;
6947;SDS011;3513;47.664;9.162;2023-04-24T05:14:04;0.97;;;0.87;;
6947;SDS011;3513;47.664;9.162;2023-04-24T05:16:29;0.90;;;0.73;;
6947;SDS011;3513;47.664;9.162;2023-04-24T05:18:55;0.63;;;0.50;;
6947;SDS011;3513;47.664;9.162;2023-04-24T05:21:21;0.93;;;0.60;;
6947;SDS011;3513;47.664;9.162;2023-04-24T05:23:47;1.00;;;0.70;;
6947;SDS011;3513;47.664;9.162;2023-04-24T05:26:13;1.03;;;0.70;;
6947;SDS011;3513;47.664;9.162;2023-04-24T05:28:39;0.70;;;0.67;;
6947;SDS011;3513;47.664;9.162;2023-04-24T05:31:05;0.90;;;0.90;;
6947;SDS011;3513;47.664;9.162;2023-04-24T05:33:31;0.90;;;0.70;;
6947;SDS011;3513;47.664;9.162;2023-04-24T05:35:57;1.40;;;0.70;;
6947;SDS011;3513;47.664;9.162;2023-04-24T05:38:22;1.07;;;0.57;;
6947;SDS011;3513;47.664;9.162;2023-04-24T05:40:48;0.70;;;0.50;;
6947;SDS011;3513;47.664;9.162;2023-04-24T05:43:13;0.80;;;0.60;;
6947;SDS011;3513;47.664;9.162;2023-04-24T05:45:39;4.00;;;0.93;;
6947;SDS011;3513;47.664;9.162;2023-04-24T05:48:05;1.67;;;0.90;;
6947;SDS011;3513;47.664;9.162;2023-04-24T05:50:30;1.23;;;0.80;;
6947;SDS011;3513;47.664;9.162;2023-04-24T05:52:56;2.10;;;0.80;;
6947;SDS011;3513;47.664;9.162;2023-04-24T05:55:26;0.80;;;0.70;;
6947;SDS011;3513;47.664;9.162;2023-04-24T05:57:52;1.67;;;0.83;;
6947;SDS011;3513;47.664;9.162;2023-04-24T06:00:18;0.70;;;0.70;;
6947;SDS011;3513;47.664;9.162;2023-04-24T06:02:47;2.80;;;1.00;;
6947;SDS011;3513;47.664;9.162;2023-04-24T06:05:13;6.00;;;0.90;;
6947;SDS011;3513;47.664;9.162;2023-04-24T06:07:39;0.97;;;0.87;;
6947;SDS011;3513;47.664;9.162;2023-04-24T06:10:05;1.27;;;1.00;;
6947;SDS011;3513;47.664;9.162;2023-04-24T06:12:31;0.77;;;0.77;;
6947;SDS011;3513;47.664;9.162;2023-04-24T06:14:56;1.10;;;0.80;;
6947;SDS011;3513;47.664;9.162;2023-04-24T06:17:22;4.20;;;0.83;;
6947;SDS011;3513;47.664;9.162;2023-04-24T06:19:48;3.37;;;1.07;;
6947;SDS011;3513;47.664;9.162;2023-04-24T06:22:13;1.57;;;1.20;;
6947;SDS011;3513;47.664;9.162;2023-04-24T06:24:39;2.23;;;1.30;;
6947;SDS011;3513;47.664;9.162;2023-04-24T06:27:05;5.90;;;1.20;;
6947;SDS011;3513;47.664;9.162;2023-04-24T06:29:32;2.63;;;1.37;;
6947;SDS011;3513;47.664;9.162;2023-04-24T06:31:58;6.10;;;1.37;;
6947;SDS011;3513;47.664;9.162;2023-04-24T06:34:24;1.73;;;1.03;;
6947;SDS011;3513;47.664;9.162;2023-04-24T06:36:49;2.77;;;1.40;;
6947;SDS011;3513;47.664;9.162;2023-04-24T06:39:15;2.47;;;1.50;;
6947;SDS011;3513;47.664;9.162;2023-04-24T06:41:41;2.40;;;1.60;;
6947;SDS011;3513;47.664;9.162;2023-04-24T06:44:06;1.57;;;1.47;;
6947;SDS011;3513;47.664;9.162;2023-04-24T06:46:32;5.50;;;1.93;;
6947;SDS011;3513;47.664;9.162;2023-04-24T06:48:58;2.87;;;1.70;;
6947;SDS011;3513;47.664;9.162;2023-04-24T06:51:24;5.43;;;1.87;;
6947;SDS011;3513;47.664;9.162;2023-04-24T06:53:53;4.07;;;1.83;;
6947;SDS011;3513;47.664;9.162;2023-04-24T06:56:21;2.03;;;1.73;;
6947;SDS011;3513;47.664;9.162;2023-04-24T06:58:47;3.83;;;1.80;;
6947;SDS011;3513;47.664;9.162;2023-04-24T07:01:13;6.10;;;1.50;;
6947;SDS011;3513;47.664;9.162;2023-04-24T07:03:38;1.93;;;1.43;;
6947;SDS011;3513;47.664;9.162;2023-04-24T07:06:04;4.00;;;2.20;;
6947;SDS011;3513;47.664;9.162;2023-04-24T07:08:30;1.73;;;1.63;;
6947;SDS011;3513;47.664;9.162;2023-04-24T07:10:58;3.63;;;2.50;;
6947;SDS011;3513;47.664;9.162;2023-04-24T07:13:24;2.87;;;1.80;;
6947;SDS011;3513;47.664;9.162;2023-04-24T07:15:49;2.70;;;2.00;;
6947;SDS011;3513;47.664;9.162;2023-04-24T07:18:17;2.10;;;1.90;;
6947;SDS011;3513;47.664;9.162;2023-04-24T07:20:43;2.73;;;2.00;;
6947;SDS011;3513;47.664;9.162;2023-04-24T07:23:09;3.23;;;2.10;;
6947;SDS011;3513;47.664;9.162;2023-04-24T07:25:34;3.93;;;2.10;;
6947;SDS011;3513;47.664;9.162;2023-04-24T07:28:00;8.27;;;2.80;;
6947;SDS011;3513;47.664;9.162;2023-04-24T07:30:26;13.77;;;2.70;;
6947;SDS011;3513;47.664;9.162;2023-04-24T07:32:53;2.80;;;2.00;;
6947;SDS011;3513;47.664;9.162;2023-04-24T07:35:19;11.40;;;2.33;;
6947;SDS011;3513;47.664;9.162;2023-04-24T07:37:45;3.90;;;2.97;;
6947;SDS011;3513;47.664;9.162;2023-04-24T07:40:14;5.20;;;1.80;;
6947;SDS011;3513;47.664;9.162;2023-04-24T07:42:40;8.17;;;2.37;;
6947;SDS011;3513;47.664;9.162;2023-04-24T07:45:06;5.17;;;2.37;;
6947;SDS011;3513;47.664;9.162;2023-04-24T07:47:32;5.97;;;2.07;;
6947;SDS011;3513;47.664;9.162;2023-04-24T07:49:59;3.33;;;2.07;;
6947;SDS011;3513;47.664;9.162;2023-04-24T07:52:24;6.23;;;2.50;;
6947;SDS011;3513;47.664;9.162;2023-04-24T07:54:50;2.77;;;2.27;;
6947;SDS011;3513;47.664;9.162;2023-04-24T07:57:17;5.00;;;2.40;;
6947;SDS011;3513;47.664;9.162;2023-04-24T07:59:43;7.73;;;2.67;;
6947;SDS011;3513;47.664;9.162;2023-04-24T08:02:08;2.57;;;1.80;;
6947;SDS011;3513;47.664;9.162;2023-04-24T08:04:34;3.57;;;2.13;;
6947;SDS011;3513;47.664;9.162;2023-04-24T08:07:00;4.83;;;1.83;;
6947;SDS011;3513;47.664;9.162;2023-04-24T08:09:25;9.07;;;1.97;;
6947;SDS011;3513;47.664;9.162;2023-04-24T08:11:51;5.63;;;1.77;;
6947;SDS011;3513;47.664;9.162;2023-04-24T08:14:18;4.33;;;1.77;;
6947;SDS011;3513;47.664;9.162;2023-04-24T08:16:43;7.13;;;1.80;;
6947;SDS011;3513;47.664;9.162;2023-04-24T08:19:09;3.50;;;1.67;;
6947;SDS011;3513;47.664;9.162;2023-04-24T08:21:35;1.33;;;1.20;;
6947;SDS011;3513;47.664;9.162;2023-04-24T08:24:00;6.00;;;1.80;;
6947;SDS011;3513;47.664;9.162;2023-04-24T08:26:30;3.23;;;1.60;;
6947;SDS011;3513;47.664;9.162;2023-04-24T08:28:55;5.80;;;1.37;;
6947;SDS011;3513;47.664;9.162;2023-04-24T08:31:21;3.63;;;2.00;;
6947;SDS011;3513;47.664;9.162;2023-04-24T08:33:47;2.90;;;1.40;;
6947;SDS011;3513;47.664;9.162;2023-04-24T08:36:13;1.90;;;1.70;;
6947;SDS011;3513;47.664;9.162;2023-04-24T08:38:39;3.57;;;1.70;;
6947;SDS011;3513;47.664;9.162;2023-04-24T08:41:04;3.87;;;1.40;;
6947;SDS011;3513;47.664;9.162;2023-04-24T08:43:31;3.90;;;1.67;;
6947;SDS011;3513;47.664;9.162;2023-04-24T08:45:58;5.97;;;2.57;;
6947;SDS011;3513;47.664;9.162;2023-04-24T08:48:24;3.00;;;1.60;;
6947;SDS011;3513;47.664;9.162;2023-04-24T08:50:50;4.60;;;1.80;;
6947;SDS011;3513;47.664;9.162;2023-04-24T08:53:16;5.60;;;1.87;;
6947;SDS011;3513;47.664;9.162;2023-04-24T08:55:43;3.00;;;1.40;;
6947;SDS011;3513;47.664;9.162;2023-04-24T08:58:11;2.70;;;1.87;;
6947;SDS011;3513;47.664;9.162;2023-04-24T09:00:37;4.47;;;2.27;;
6947;SDS011;3513;47.664;9.162;2023-04-24T09:03:04;3.27;;;1.60;;
6947;SDS011;3513;47.664;9.162;2023-04-24T09:05:31;1.50;;;1.40;;
6947;SDS011;3513;47.664;9.162;2023-04-24T09:07:58;3.37;;;1.70;;
6947;SDS011;3513;47.664;9.162;2023-04-24T09:10:26;3.00;;;1.53;;
6947;SDS011;3513;47.664;9.162;2023-04-24T09:12:55;2.73;;;1.40;;
6947;SDS011;3513;47.664;9.162;2023-04-24T09:15:23;10.73;;;1.90;;
6947;SDS011;3513;47.664;9.162;2023-04-24T09:17:49;21.53;;;1.67;;
6947;SDS011;3513;47.664;9.162;2023-04-24T09:20:15;11.57;;;1.83;;
6947;SDS011;3513;47.664;9.162;2023-04-24T09:22:42;3.33;;;1.77;;
6947;SDS011;3513;47.664;9.162;2023-04-24T09:25:08;5.53;;;1.67;;
6947;SDS011;3513;47.664;9.162;2023-04-24T09:27:37;5.93;;;2.43;;
6947;SDS011;3513;47.664;9.162;2023-04-24T09:30:07;4.33;;;1.50;;
6947;SDS011;3513;47.664;9.162;2023-04-24T09:32:33;3.13;;;1.97;;
6947;SDS011;3513;47.664;9.162;2023-04-24T09:35:06;4.43;;;1.30;;
6947;SDS011;3513;47.664;9.162;2023-04-24T09:37:36;8.40;;;2.17;;
6947;SDS011;3513;47.664;9.162;2023-04-24T09:40:17;1.70;;;1.60;;
6947;SDS011;3513;47.664;9.162;2023-04-24T09:42:51;2.30;;;2.10;;
6947;SDS011;3513;47.664;9.162;2023-04-24T09:45:18;3.03;;;2.30;;
6947;SDS011;3513;47.664;9.162;2023-04-24T09:47:44;4.27;;;2.07;;
6947;SDS011;3513;47.664;9.162;2023-04-24T09:50:14;5.97;;;2.20;;
6947;SDS011;3513;47.664;9.162;2023-04-24T09:52:42;6.60;;;1.67;;
6947;SDS011;3513;47.664;9.162;2023-04-24T09:55:16;1.73;;;1.50;;
6947;SDS011;3513;47.664;9.162;2023-04-24T09:57:49;10.73;;;2.50;;
6947;SDS011;3513;47.664;9.162;2023-04-24T10:00:27;3.47;;;1.60;;
6947;SDS011;3513;47.664;9.162;2023-04-24T10:02:55;6.50;;;2.10;;
6947;SDS011;3513;47.664;9.162;2023-04-24T10:05:35;12.33;;;2.13;;
6947;SDS011;3513;47.664;9.162;2023-04-24T10:08:03;8.77;;;1.53;;
6947;SDS011;3513;47.664;9.162;2023-04-24T10:10:42;8.80;;;2.20;;
6947;SDS011;3513;47.664;9.162;2023-04-24T10:13:09;7.70;;;2.00;;
6947;SDS011;3513;47.664;9.162;2023-04-24T10:15:39;11.03;;;1.77;;
6947;SDS011;3513;47.664;9.162;2023-04-24T10:18:06;2.93;;;1.67;;
6947;SDS011;3513;47.664;9.162;2023-04-24T10:20:33;1.77;;;1.67;;
6947;SDS011;3513;47.664;9.162;2023-04-24T10:23:00;6.03;;;2.20;;
6947;SDS011;3513;47.664;9.162;2023-04-24T10:25:27;3.63;;;1.50;;
6947;SDS011;3513;47.664;9.162;2023-04-24T10:27:57;6.87;;;2.47;;
6947;SDS011;3513;47.664;9.162;2023-04-24T10:30:31;3.67;;;2.13;;
6947;SDS011;3513;47.664;9.162;2023-04-24T10:33:03;2.83;;;1.73;;
6947;SDS011;3513;47.664;9.162;2023-04-24T10:35:32;5.37;;;2.20;;
6947;SDS011;3513;47.664;9.162;2023-04-24T10:38:06;3.20;;;1.87;;
6947;SDS011;3513;47.664;9.162;2023-04-24T10:40:35;2.70;;;1.50;;
6947;SDS011;3513;47.664;9.162;2023-04-24T10:43:05;11.03;;;1.73;;
6947;SDS011;3513;47.664;9.162;2023-04-24T10:45:33;3.80;;;1.80;;
6947;SDS011;3513;47.664;9.162;2023-04-24T10:48:05;14.03;;;2.23;;
6947;SDS011;3513;47.664;9.162;2023-04-24T10:50:52;3.87;;;2.03;;
6947;SDS011;3513;47.664;9.162;2023-04-24T10:53:19;4.20;;;2.07;;
6947;SDS011;3513;47.664;9.162;2023-04-24T10:55:49;2.20;;;1.23;;
6947;SDS011;3513;47.664;9.162;2023-04-24T10:58:16;3.23;;;2.07;;
6947;SDS011;3513;47.664;9.162;2023-04-24T11:01:00;13.23;;;2.43;;
6947;SDS011;3513;47.664;9.162;2023-04-24T11:03:27;1.67;;;1.47;;
6947;SDS011;3513;47.664;9.162;2023-04-24T11:08:25;3.43;;;1.80;;
6947;SDS011;3513;47.664;9.162;2023-04-24T11:18:45;2.87;;;1.40;;
6947;SDS011;3513;47.664;9.162;2023-04-24T11:21:16;5.37;;;1.97;;
6947;SDS011;3513;47.664;9.162;2023-04-24T11:23:42;4.30;;;1.73;;
6947;SDS011;3513;47.664;9.162;2023-04-24T11:26:09;10.83;;;2.00;;
6947;SDS011;3513;47.664;9.162;2023-04-24T11:28:36;3.33;;;2.00;;
6947;SDS011;3513;47.664;9.162;2023-04-24T11:34:12;4.13;;;1.70;;
6947;SDS011;3513;47.664;9.162;2023-04-24T11:36:42;9.57;;;2.80;;
6947;SDS011;3513;47.664;9.162;2023-04-24T11:39:09;4.00;;;1.90;;
6947;SDS011;3513;47.664;9.162;2023-04-24T11:41:36;2.20;;;1.43;;
6947;SDS011;3513;47.664;9.162;2023-04-24T11:44:02;3.10;;;1.77;;
6947;SDS011;3513;47.664;9.162;2023-04-24T11:46:30;6.00;;;1.53;;
6947;SDS011;3513;47.664;9.162;2023-04-24T11:48:56;16.83;;;2.07;;
6947;SDS011;3513;47.664;9.162;2023-04-24T11:51:24;2.10;;;1.50;;
6947;SDS011;3513;47.664;9.162;2023-04-24T11:53:51;2.90;;;1.70;;
6947;SDS011;3513;47.664;9.162;2023-04-24T11:56:19;1.70;;;1.60;;
6947;SDS011;3513;47.664;9.162;2023-04-24T11:58:46;5.70;;;1.80;;
6947;SDS011;3513;47.664;9.162;2023-04-24T12:01:12;16.27;;;2.90;;
6947;SDS011;3513;47.664;9.162;2023-04-24T12:03:37;7.00;;;1.43;;
6947;SDS011;3513;47.664;9.162;2023-04-24T12:06:10;8.63;;;2.20;;
6947;SDS011;3513;47.664;9.162;2023-04-24T12:08:37;6.27;;;2.10;;
6947;SDS011;3513;47.664;9.162;2023-04-24T12:11:03;2.70;;;1.80;;
6947;SDS011;3513;47.664;9.162;2023-04-24T12:13:33;12.10;;;2.30;;
6947;SDS011;3513;47.664;9.162;2023-04-24T12:16:02;3.90;;;1.83;;
6947;SDS011;3513;47.664;9.162;2023-04-24T12:18:29;2.13;;;1.83;;
6947;SDS011;3513;47.664;9.162;2023-04-24T12:20:55;3.43;;;1.90;;
6947;SDS011;3513;47.664;9.162;2023-04-24T12:23:33;3.67;;;1.73;;
6947;SDS011;3513;47.664;9.162;2023-04-24T12:26:00;6.20;;;1.73;;
6947;SDS011;3513;47.664;9.162;2023-04-24T12:28:34;4.50;;;2.13;;
6947;SDS011;3513;47.664;9.162;2023-04-24T12:31:01;3.10;;;1.67;;
6947;SDS011;3513;47.664;9.162;2023-04-24T12:33:26;3.53;;;1.80;;
6947;SDS011;3513;47.664;9.162;2023-04-24T12:35:52;3.20;;;1.80;;
6947;SDS011;3513;47.664;9.162;2023-04-24T12:38:21;4.20;;;2.03;;
6947;SDS011;3513;47.664;9.162;2023-04-24T12:41:00;6.70;;;1.87;;
6947;SDS011;3513;47.664;9.162;2023-04-24T12:43:28;3.57;;;1.53;;
6947;SDS011;3513;47.664;9.162;2023-04-24T12:45:53;2.97;;;1.77;;
6947;SDS011;3513;47.664;9.162;2023-04-24T12:48:19;7.83;;;1.37;;
6947;SDS011;3513;47.664;9.162;2023-04-24T12:50:45;2.30;;;1.20;;
6947;SDS011;3513;47.664;9.162;2023-04-24T12:53:10;2.93;;;1.67;;
6947;SDS011;3513;47.664;9.162;2023-04-24T12:55:36;6.60;;;2.10;;
6947;SDS011;3513;47.664;9.162;2023-04-24T12:58:02;2.67;;;1.60;;
6947;SDS011;3513;47.664;9.162;2023-04-24T13:00:28;2.97;;;1.53;;
6947;SDS011;3513;47.664;9.162;2023-04-24T13:02:54;2.20;;;1.60;;
6947;SDS011;3513;47.664;9.162;2023-04-24T13:05:20;5.03;;;1.67;;
6947;SDS011;3513;47.664;9.162;2023-04-24T13:07:45;5.93;;;3.00;;
6947;SDS011;3513;47.664;9.162;2023-04-24T13:10:11;7.07;;;1.90;;
6947;SDS011;3513;47.664;9.162;2023-04-24T13:12:38;2.30;;;1.63;;
6947;SDS011;3513;47.664;9.162;2023-04-24T13:15:04;3.50;;;1.27;;
6947;SDS011;3513;47.664;9.162;2023-04-24T13:17:30;2.20;;;1.33;;
6947;SDS011;3513;47.664;9.162;2023-04-24T13:19:56;2.03;;;1.50;;
6947;SDS011;3513;47.664;9.162;2023-04-24T13:22:21;7.07;;;1.80;;
6947;SDS011;3513;47.664;9.162;2023-04-24T13:24:47;5.13;;;1.60;;
6947;SDS011;3513;47.664;9.162;2023-04-24T13:27:14;3.50;;;1.80;;
6947;SDS011;3513;47.664;9.162;2023-04-24T13:29:40;6.40;;;2.10;;
6947;SDS011;3513;47.664;9.162;2023-04-24T13:32:05;2.80;;;1.77;;
6947;SDS011;3513;47.664;9.162;2023-04-24T13:34:31;3.07;;;1.60;;
6947;SDS011;3513;47.664;9.162;2023-04-24T13:36:57;1.50;;;1.30;;
6947;SDS011;3513;47.664;9.162;2023-04-24T13:39:23;8.27;;;1.80;;
6947;SDS011;3513;47.664;9.162;2023-04-24T13:41:50;4.40;;;2.10;;
6947;SDS011;3513;47.664;9.162;2023-04-24T13:44:16;8.87;;;2.10;;
6947;SDS011;3513;47.664;9.162;2023-04-24T13:46:43;8.27;;;2.10;;
6947;SDS011;3513;47.664;9.162;2023-04-24T13:49:10;9.10;;;2.93;;
6947;SDS011;3513;47.664;9.162;2023-04-24T13:51:36;5.70;;;3.03;;
6947;SDS011;3513;47.664;9.162;2023-04-24T13:54:01;2.90;;;2.13;;
6947;SDS011;3513;47.664;9.162;2023-04-24T13:56:27;1.87;;;1.70;;
6947;SDS011;3513;47.664;9.162;2023-04-24T13:58:53;14.03;;;2.10;;
6947;SDS011;3513;47.664;9.162;2023-04-24T14:01:21;1.90;;;1.50;;
6947;SDS011;3513;47.664;9.162;2023-04-24T14:03:51;8.87;;;2.17;;
6947;SDS011;3513;47.664;9.162;2023-04-24T14:06:18;2.10;;;1.57;;
6947;SDS011;3513;47.664;9.162;2023-04-24T14:08:44;2.63;;;1.30;;
6947;SDS011;3513;47.664;9.162;2023-04-24T14:11:10;2.40;;;1.63;;
6947;SDS011;3513;47.664;9.162;2023-04-24T14:13:36;3.30;;;1.80;;
6947;SDS011;3513;47.664;9.162;2023-04-24T14:16:02;1.87;;;1.77;;
6947;SDS011;3513;47.664;9.162;2023-04-24T14:18:29;2.50;;;1.73;;
6947;SDS011;3513;47.664;9.162;2023-04-24T14:20:54;7.57;;;2.00;;
6947;SDS011;3513;47.664;9.162;2023-04-24T14:23:20;4.90;;;1.97;;
6947;SDS011;3513;47.664;9.162;2023-04-24T14:25:46;1.70;;;1.60;;
6947;SDS011;3513;47.664;9.162;2023-04-24T14:28:15;1.17;;;1.07;;
6947;SDS011;3513;47.664;9.162;2023-04-24T14:30:41;2.70;;;2.13;;
6947;SDS011;3513;47.664;9.162;2023-04-24T14:33:07;8.60;;;1.63;;
6947;SDS011;3513;47.664;9.162;2023-04-24T14:35:33;2.13;;;1.27;;
6947;SDS011;3513;47.664;9.162;2023-04-24T14:38:00;6.07;;;1.80;;
6947;SDS011;3513;47.664;9.162;2023-04-24T14:40:25;3.30;;;1.73;;
6947;SDS011;3513;47.664;9.162;2023-04-24T14:42:51;3.80;;;1.50;;
6947;SDS011;3513;47.664;9.162;2023-04-24T14:45:17;8.23;;;1.73;;
6947;SDS011;3513;47.664;9.162;2023-04-24T14:47:43;6.83;;;2.00;;
6947;SDS011;3513;47.664;9.162;2023-04-24T14:50:09;2.20;;;1.43;;
6947;SDS011;3513;47.664;9.162;2023-04-24T14:52:35;2.10;;;1.50;;
6947;SDS011;3513;47.664;9.162;2023-04-24T14:55:02;2.90;;;1.00;;
6947;SDS011;3513;47.664;9.162;2023-04-24T14:57:28;6.97;;;1.63;;
6947;SDS011;3513;47.664;9.162;2023-04-24T14:59:54;2.60;;;1.60;;
6947;SDS011;3513;47.664;9.162;2023-04-24T15:02:19;1.90;;;1.67;;
6947;SDS011;3513;47.664;9.162;2023-04-24T15:04:45;7.03;;;1.57;;
6947;SDS011;3513;47.664;9.162;2023-04-24T15:07:10;4.63;;;1.83;;
6947;SDS011;3513;47.664;9.162;2023-04-24T15:09:36;4.43;;;1.63;;
6947;SDS011;3513;47.664;9.162;2023-04-24T15:12:01;4.10;;;2.23;;
6947;SDS011;3513;47.664;9.162;2023-04-24T15:14:28;1.90;;;1.63;;
6947;SDS011;3513;47.664;9.162;2023-04-24T15:16:53;4.97;;;2.03;;
6947;SDS011;3513;47.664;9.162;2023-04-24T15:19:19;2.00;;;1.77;;
6947;SDS011;3513;47.664;9.162;2023-04-24T15:21:45;6.67;;;1.97;;
6947;SDS011;3513;47.664;9.162;2023-04-24T15:24:10;2.50;;;1.50;;